Time;durP1;ratioP1;P1;durP2;ratioP2;P2;SDS_P1;SDS_P2;PMS_P1;PMS_P2;Temp;Humidity;BMP_temperature;BMP_pressure;BME280_temperature;BME280_humidity;BME280_pressure;Samples;Min_cycle;Max_cycle;Signal;HPM_P1;HPM_P2
2020/12/30 00:02:06;;;;;;;12.90;6.38;;;20.70;40.20;;;;;;5054670;28;20043;-70
2020/12/30 00:04:32;;;;;;;12.05;7.38;;;20.70;40.20;;;;;;5055090;28;20029;-70
2020/12/30 00:06:57;;;;;;;10.93;6.40;;;20.70;40.30;;;;;;5062255;28;20611;-70
2020/12/30 00:09:23;;;;;;;12.15;7.40;;;20.70;40.30;;;;;;5071606;28;20063;-70
2020/12/30 00:11:48;;;;;;;11.30;6.93;;;20.70;40.30;;;;;;5052146;28;20032;-70
2020/12/30 00:14:14;;;;;;;10.27;7.18;;;20.60;40.30;;;;;;5054221;28;20037;-70
2020/12/30 00:16:40;;;;;;;10.82;7.22;;;20.60;40.30;;;;;;5054704;28;20025;-70
2020/12/30 00:19:05;;;;;;;9.30;5.85;;;20.60;40.40;;;;;;5085285;28;20048;-70
2020/12/30 00:21:31;;;;;;;13.82;6.88;;;20.60;40.40;;;;;;5094193;28;20103;-71
2020/12/30 00:23:56;;;;;;;10.43;6.93;;;20.60;40.50;;;;;;5094652;28;20107;-71
2020/12/30 00:26:22;;;;;;;10.85;6.88;;;20.60;40.40;;;;;;5094914;28;20511;-71
2020/12/30 00:28:47;;;;;;;9.05;6.68;;;20.50;40.40;;;;;;5094780;28;20028;-71
2020/12/30 00:31:13;;;;;;;11.10;7.47;;;20.50;40.50;;;;;;5094134;28;20031;-70
2020/12/30 00:33:39;;;;;;;14.32;7.40;;;20.50;40.50;;;;;;5110226;28;20062;-71
2020/12/30 00:36:06;;;;;;;11.15;6.68;;;20.50;40.50;;;;;;5111246;28;20537;-71
2020/12/30 00:38:32;;;;;;;13.02;7.25;;;20.50;40.60;;;;;;5097060;28;20023;-71
2020/12/30 00:40:57;;;;;;;9.35;6.20;;;20.50;40.60;;;;;;5106133;28;20020;-70
2020/12/30 00:43:23;;;;;;;9.93;6.13;;;20.50;40.70;;;;;;5094122;28;20103;-70
2020/12/30 00:45:48;;;;;;;12.90;6.90;;;20.40;40.70;;;;;;5081794;28;20499;-70
2020/12/30 00:48:14;;;;;;;11.02;7.25;;;20.40;40.70;;;;;;5094166;28;20107;-70
2020/12/30 00:50:39;;;;;;;11.70;7.90;;;20.40;40.70;;;;;;5094199;28;20024;-70
2020/12/30 00:53:05;;;;;;;9.90;6.68;;;20.40;40.70;;;;;;5093987;28;20024;-70
2020/12/30 00:55:30;;;;;;;11.20;6.95;;;20.40;40.80;;;;;;5093849;28;20032;-70
2020/12/30 00:57:56;;;;;;;9.93;6.75;;;20.40;40.70;;;;;;5095232;28;20032;-70
2020/12/30 01:00:21;;;;;;;10.45;6.72;;;20.40;40.80;;;;;;5093518;28;20051;-74
2020/12/30 01:02:47;;;;;;;13.88;7.07;;;20.30;40.70;;;;;;5109617;28;20016;-75
2020/12/30 01:05:13;;;;;;;12.15;6.60;;;20.30;40.70;;;;;;5093465;28;20024;-75
2020/12/30 01:07:38;;;;;;;11.55;6.28;;;20.30;41.40;;;;;;5114487;27;20023;-75
2020/12/30 01:10:05;;;;;;;8.65;6.25;;;20.30;40.80;;;;;;5108863;28;20105;-75
2020/12/30 01:12:30;;;;;;;16.25;7.40;;;20.30;40.80;;;;;;5093240;28;20031;-74
2020/12/30 01:14:56;;;;;;;11.98;7.10;;;20.30;40.90;;;;;;5092703;28;20032;-74
2020/12/30 01:17:21;;;;;;;10.52;6.90;;;20.30;40.80;;;;;;5093237;28;20044;-75
2020/12/30 01:19:47;;;;;;;14.52;6.90;;;20.20;40.80;;;;;;5108862;28;20047;-74
2020/12/30 01:22:13;;;;;;;9.80;6.53;;;20.20;40.80;;;;;;5092995;28;20038;-70
2020/12/30 01:24:39;;;;;;;13.68;6.75;;;20.20;40.70;;;;;;5092733;28;20024;-71
2020/12/30 01:27:05;;;;;;;13.32;6.82;;;20.20;40.70;;;;;;5108276;27;20081;-71
2020/12/30 01:29:30;;;;;;;8.82;5.82;;;20.20;40.70;;;;;;5093173;28;20077;-70
2020/12/30 01:31:56;;;;;;;10.77;6.55;;;20.20;40.70;;;;;;5093052;28;20388;-71
2020/12/30 01:34:21;;;;;;;11.70;7.10;;;20.20;40.70;;;;;;5092925;28;20024;-70
2020/12/30 01:36:52;;;;;;;11.95;7.22;;;20.20;40.70;;;;;;5085833;28;20036;-75
2020/12/30 01:39:17;;;;;;;11.38;6.22;;;20.20;40.70;;;;;;5092511;28;20074;-75
2020/12/30 01:41:58;;;;;;;9.57;6.15;;;20.20;40.70;;;;;;5092607;28;20487;-74
2020/12/30 01:44:23;;;;;;;12.35;7.10;;;20.20;40.60;;;;;;5089649;28;20033;-75
2020/12/30 01:46:49;;;;;;;11.02;7.10;;;20.20;40.60;;;;;;5093147;28;20084;-74
2020/12/30 01:49:19;;;;;;;11.25;6.93;;;20.20;40.60;;;;;;5108940;28;20053;-74
2020/12/30 01:51:45;;;;;;;13.15;7.22;;;20.20;40.60;;;;;;5107278;28;20023;-75
2020/12/30 01:54:11;;;;;;;12.52;7.10;;;20.20;40.60;;;;;;5092239;28;20111;-74
2020/12/30 01:57:05;;;;;;;12.10;7.20;;;20.10;40.50;;;;;;5074439;28;20502;-75
2020/12/30 01:59:30;;;;;;;12.30;7.40;;;20.10;40.60;;;;;;5091289;28;20044;-75
2020/12/30 02:02:07;;;;;;;14.20;8.23;;;20.20;40.60;;;;;;5092746;28;20059;-75
2020/12/30 02:04:38;;;;;;;12.07;7.25;;;20.10;40.60;;;;;;5055034;28;20024;-75
2020/12/30 02:07:04;;;;;;;14.93;8.20;;;20.10;40.60;;;;;;5086381;28;20062;-75
2020/12/30 02:09:29;;;;;;;16.48;8.38;;;20.10;40.60;;;;;;5112795;28;20057;-75
2020/12/30 02:11:55;;;;;;;18.27;7.10;;;20.10;40.60;;;;;;5055555;28;20040;-74
2020/12/30 02:14:21;;;;;;;14.38;8.27;;;20.00;40.60;;;;;;5096167;28;20028;-75
2020/12/30 02:16:53;;;;;;;13.43;8.15;;;20.10;40.80;;;;;;5092667;28;20036;-74
2020/12/30 02:19:20;;;;;;;12.82;7.95;;;20.10;40.70;;;;;;5078040;28;20527;-75
2020/12/30 02:21:45;;;;;;;14.00;7.53;;;20.00;41.30;;;;;;5092003;28;20056;-75
2020/12/30 02:24:15;;;;;;;13.13;7.70;;;20.00;40.70;;;;;;5074604;28;20070;-74
2020/12/30 02:26:41;;;;;;;13.30;8.27;;;20.00;40.70;;;;;;5107945;28;20460;-74
2020/12/30 02:29:06;;;;;;;15.13;8.25;;;20.00;40.70;;;;;;5092893;28;20032;-74
2020/12/30 02:31:32;;;;;;;14.23;8.13;;;20.00;40.70;;;;;;5093009;28;20024;-74
2020/12/30 02:33:57;;;;;;;17.10;8.18;;;19.90;40.70;;;;;;5092612;28;20098;-75
2020/12/30 02:36:23;;;;;;;14.07;7.70;;;20.00;40.70;;;;;;5100415;28;20032;-74
2020/12/30 02:38:52;;;;;;;13.07;7.60;;;19.90;40.70;;;;;;5094825;28;20020;-73
2020/12/30 02:41:18;;;;;;;14.10;7.00;;;19.90;40.70;;;;;;5113053;28;20491;-73
2020/12/30 02:43:45;;;;;;;16.52;6.97;;;19.90;40.70;;;;;;5079070;28;20028;-73
2020/12/30 02:46:10;;;;;;;12.85;7.45;;;19.90;40.70;;;;;;5108600;28;20039;-73
2020/12/30 02:48:36;;;;;;;12.70;5.63;;;19.90;40.70;;;;;;5092353;28;20479;-75
2020/12/30 02:51:02;;;;;;;15.15;8.75;;;19.80;40.60;;;;;;5092571;28;20024;-75
2020/12/30 02:53:27;;;;;;;15.80;7.90;;;19.90;40.70;;;;;;5108193;28;20023;-74
2020/12/30 02:55:53;;;;;;;15.68;8.50;;;19.80;40.60;;;;;;5092125;28;20115;-74
2020/12/30 02:58:18;;;;;;;14.65;7.55;;;19.80;40.60;;;;;;5104132;28;20530;-73
2020/12/30 03:00:44;;;;;;;15.88;8.85;;;19.80;40.60;;;;;;5112900;28;20391;-74
2020/12/30 03:03:10;;;;;;;12.57;7.35;;;19.80;40.60;;;;;;5108010;28;20099;-74
2020/12/30 03:05:35;;;;;;;15.02;8.40;;;19.80;40.60;;;;;;5092966;28;20110;-74
2020/12/30 03:08:01;;;;;;;15.35;8.77;;;19.80;40.60;;;;;;5092152;28;20030;-74
2020/12/30 03:10:26;;;;;;;15.85;7.22;;;19.80;40.60;;;;;;5094438;28;20039;-74
2020/12/30 03:12:52;;;;;;;15.25;7.63;;;19.70;40.60;;;;;;5096265;28;20514;-74
2020/12/30 03:15:17;;;;;;;14.93;8.55;;;19.80;40.60;;;;;;5097818;28;20411;-74
2020/12/30 03:17:43;;;;;;;16.00;7.10;;;19.80;40.60;;;;;;5094484;28;20495;-74
2020/12/30 03:20:08;;;;;;;14.02;8.45;;;19.80;40.60;;;;;;5095819;28;20024;-74
2020/12/30 03:22:34;;;;;;;14.35;7.40;;;19.80;40.60;;;;;;5095916;28;20020;-74
2020/12/30 03:25:02;;;;;;;11.15;7.32;;;19.80;40.60;;;;;;5094226;28;20032;-74
2020/12/30 03:27:28;;;;;;;11.90;7.75;;;19.70;40.60;;;;;;5093929;28;20036;-74
2020/12/30 03:29:53;;;;;;;15.68;8.98;;;19.70;40.60;;;;;;5095729;28;20081;-74
2020/12/30 03:32:19;;;;;;;13.15;7.20;;;19.70;40.60;;;;;;5109751;28;20034;-74
2020/12/30 03:34:45;;;;;;;13.02;7.95;;;19.70;40.60;;;;;;5095245;28;20036;-73
2020/12/30 03:37:10;;;;;;;14.50;7.55;;;19.70;41.20;;;;;;5095721;28;20114;-74
2020/12/30 03:39:36;;;;;;;12.98;7.75;;;19.70;40.60;;;;;;5094435;28;20543;-75
2020/12/30 03:42:01;;;;;;;12.18;7.53;;;19.70;40.60;;;;;;5110001;28;20411;-75
2020/12/30 03:44:45;;;;;;;14.13;8.43;;;19.70;40.60;;;;;;5110371;28;20036;-75
2020/12/30 03:47:14;;;;;;;12.95;6.93;;;19.70;40.60;;;;;;5095043;28;20434;-75
2020/12/30 03:49:39;;;;;;;15.68;8.63;;;19.70;40.60;;;;;;5094426;28;20537;-75
2020/12/30 03:52:05;;;;;;;13.27;7.88;;;19.70;40.60;;;;;;5095342;28;20024;-75
2020/12/30 03:54:30;;;;;;;15.05;7.95;;;19.70;40.60;;;;;;5111277;28;20040;-76
2020/12/30 03:56:56;;;;;;;15.23;9.00;;;19.70;40.60;;;;;;5095046;28;20534;-75
2020/12/30 03:59:21;;;;;;;14.43;7.78;;;19.60;40.50;;;;;;5095106;28;20395;-75
2020/12/30 04:01:47;;;;;;;12.25;5.50;;;19.60;40.50;;;;;;5110140;28;20407;-73
2020/12/30 04:04:13;;;;;;;16.27;9.10;;;19.60;40.50;;;;;;5094816;28;20043;-73
2020/12/30 04:06:39;;;;;;;18.63;9.68;;;19.50;40.50;;;;;;5093331;28;20043;-74
2020/12/30 04:09:05;;;;;;;16.52;8.48;;;19.60;41.10;;;;;;5094683;28;20031;-74
2020/12/30 04:11:31;;;;;;;15.93;7.72;;;19.60;40.50;;;;;;5094309;28;20107;-73
2020/12/30 04:13:56;;;;;;;13.15;6.18;;;19.60;40.50;;;;;;5109864;28;20086;-74
2020/12/30 04:16:22;;;;;;;12.98;7.38;;;19.50;40.50;;;;;;5108623;28;20114;-74
2020/12/30 04:18:48;;;;;;;15.27;7.70;;;19.50;40.60;;;;;;5092182;28;20036;-73
2020/12/30 04:21:18;;;;;;;17.00;9.40;;;19.50;40.50;;;;;;5094443;28;20032;-71
2020/12/30 04:23:44;;;;;;;15.85;8.55;;;19.50;40.50;;;;;;5094188;28;20387;-70
2020/12/30 04:26:09;;;;;;;15.85;8.73;;;19.50;40.50;;;;;;5093716;28;20028;-70
2020/12/30 04:28:35;;;;;;;15.93;8.82;;;19.50;40.60;;;;;;5094155;28;20020;-71
2020/12/30 04:31:00;;;;;;;18.20;8.70;;;19.40;40.60;;;;;;5094768;28;20020;-70
2020/12/30 04:33:26;;;;;;;16.13;8.38;;;19.50;40.60;;;;;;5109106;28;20097;-70
2020/12/30 04:35:51;;;;;;;17.35;7.50;;;19.40;40.60;;;;;;5094224;28;20111;-70
2020/12/30 04:38:17;;;;;;;15.65;7.88;;;19.40;40.40;;;;;;5093819;28;20063;-69
2020/12/30 04:40:42;;;;;;;12.65;6.75;;;19.40;40.50;;;;;;5094241;28;20043;-70
2020/12/30 04:43:08;;;;;;;13.35;6.65;;;19.40;40.70;;;;;;5102991;28;20493;-70
2020/12/30 04:45:33;;;;;;;15.90;8.05;;;19.40;40.40;;;;;;5109739;28;20514;-70
2020/12/30 04:47:59;;;;;;;12.93;7.30;;;19.40;40.60;;;;;;5094244;28;20495;-70
2020/12/30 04:50:25;;;;;;;15.75;8.20;;;19.40;40.70;;;;;;5092606;28;20084;-70
2020/12/30 04:52:50;;;;;;;16.95;8.23;;;19.30;40.50;;;;;;5110108;28;20138;-70
2020/12/30 04:55:20;;;;;;;12.48;6.15;;;19.30;40.60;;;;;;5093379;28;20031;-71
2020/12/30 04:57:48;;;;;;;1.92;0.65;;;19.30;40.60;;;;;;5091674;28;20058;-70
2020/12/30 05:00:14;;;;;;;16.35;8.30;;;19.30;40.40;;;;;;5094002;28;20436;-70
2020/12/30 05:02:47;;;;;;;3.28;1.17;;;19.30;40.40;;;;;;5093365;28;20020;-74
2020/12/30 05:05:13;;;;;;;1.23;1.13;;;19.30;40.40;;;;;;5107858;28;20070;-70
2020/12/30 05:07:38;;;;;;;2.08;1.33;;;19.30;40.40;;;;;;5098402;28;20414;-70
2020/12/30 05:10:04;;;;;;;1.55;1.23;;;19.40;40.40;;;;;;5091892;28;20044;-71
2020/12/30 05:12:30;;;;;;;1.05;0.93;;;19.40;40.40;;;;;;5090934;28;20546;-74
2020/12/30 05:14:55;;;;;;;2.63;0.95;;;19.50;41.00;;;;;;5094067;28;20469;-74
2020/12/30 05:17:21;;;;;;;2.53;1.35;;;19.60;40.30;;;;;;5091559;28;20028;-74
2020/12/30 05:19:46;;;;;;;1.25;0.90;;;19.60;40.20;;;;;;5093210;28;20048;-74
2020/12/30 05:22:19;;;;;;;1.35;1.13;;;19.70;40.80;;;;;;5110012;27;20026;-74
2020/12/30 05:24:45;;;;;;;1.58;1.10;;;19.70;40.00;;;;;;5108596;28;20085;-74
2020/12/30 05:27:33;;;;;;;1.13;1.00;;;19.80;40.00;;;;;;5109018;28;20082;-75
2020/12/30 05:29:59;;;;;;;2.75;1.50;;;19.90;39.80;;;;;;5093611;28;20097;-74
2020/12/30 05:32:52;;;;;;;2.20;1.38;;;19.90;39.70;;;;;;5100080;28;20032;-70
2020/12/30 05:35:21;;;;;;;1.25;1.15;;;19.90;39.70;;;;;;5092752;28;20034;-70
2020/12/30 05:37:47;;;;;;;3.38;1.60;;;20.00;39.60;;;;;;5092719;28;20046;-70
2020/12/30 05:40:29;;;;;;;2.72;1.33;;;20.00;39.50;;;;;;5092563;28;20399;-71
2020/12/30 05:43:14;;;;;;;1.48;1.20;;;20.00;39.40;;;;;;5071908;28;20008;-71
2020/12/30 05:45:53;;;;;;;1.55;1.20;;;20.10;39.40;;;;;;5071353;28;20437;-71
2020/12/30 05:48:19;;;;;;;3.55;1.40;;;20.10;39.40;;;;;;5074359;28;20032;-70
2020/12/30 05:50:54;;;;;;;3.00;0.98;;;20.10;39.30;;;;;;5089211;28;20055;-70
2020/12/30 05:53:20;;;;;;;2.13;1.23;;;20.20;39.30;;;;;;5092565;28;20035;-70
2020/12/30 05:55:48;;;;;;;1.30;1.00;;;20.20;39.20;;;;;;5090482;28;20036;-71
2020/12/30 05:58:15;;;;;;;1.60;1.05;;;20.20;39.20;;;;;;5092682;28;20028;-71
2020/12/30 06:00:41;;;;;;;2.53;1.50;;;20.20;39.20;;;;;;5078386;28;20027;-70
2020/12/30 06:03:06;;;;;;;4.25;0.95;;;20.20;39.10;;;;;;5056816;28;20036;-69
2020/12/30 06:05:32;;;;;;;1.75;1.02;;;20.20;39.20;;;;;;5073875;28;20071;-70
2020/12/30 06:07:58;;;;;;;1.90;1.20;;;20.20;39.20;;;;;;5075473;28;20023;-70
2020/12/30 06:10:24;;;;;;;1.55;0.65;;;20.20;39.10;;;;;;5073899;28;20066;-70
2020/12/30 06:12:52;;;;;;;2.17;1.00;;;20.30;39.20;;;;;;5091609;28;20036;-69
2020/12/30 06:15:21;;;;;;;1.23;1.02;;;20.30;39.20;;;;;;5073760;28;20036;-70
2020/12/30 06:17:59;;;;;;;1.25;0.75;;;20.30;39.20;;;;;;5093641;28;20055;-70
2020/12/30 06:23:47;;;;;;;1.65;1.10;;;20.30;39.20;;;;;;5091714;28;20556;-69
2020/12/30 06:26:17;;;;;;;1.45;1.20;;;20.30;39.20;;;;;;5057225;28;20028;-70
2020/12/30 06:28:42;;;;;;;1.60;1.00;;;20.30;39.20;;;;;;5057527;28;20042;-70
2020/12/30 06:31:08;;;;;;;5.05;1.08;;;20.30;39.30;;;;;;5057334;28;20113;-70
2020/12/30 06:33:33;;;;;;;1.20;0.88;;;20.30;39.20;;;;;;5091500;28;20035;-70
2020/12/30 06:35:59;;;;;;;1.25;0.95;;;20.30;39.30;;;;;;5092125;28;20023;-69
2020/12/30 06:38:31;;;;;;;2.40;0.90;;;20.30;39.20;;;;;;5092499;28;20020;-69
2020/12/30 06:41:01;;;;;;;5.75;0.85;;;20.30;39.30;;;;;;5090377;28;20465;-70
2020/12/30 06:43:39;;;;;;;3.65;1.50;;;20.30;39.20;;;;;;5091610;28;20016;-70
2020/12/30 06:46:06;;;;;;;1.65;1.25;;;20.30;39.20;;;;;;5077635;28;20020;-71
2020/12/30 06:48:31;;;;;;;0.80;0.68;;;20.30;39.20;;;;;;5096049;28;20372;-71
2020/12/30 06:51:14;;;;;;;2.05;1.45;;;20.30;39.20;;;;;;5060764;28;20039;-70
2020/12/30 06:53:40;;;;;;;1.77;1.20;;;20.30;39.20;;;;;;5094998;28;20032;-70
2020/12/30 06:56:06;;;;;;;5.03;1.60;;;20.30;39.20;;;;;;5093429;28;20450;-70
2020/12/30 06:58:45;;;;;;;2.15;1.00;;;20.30;39.20;;;;;;5077730;28;20044;-70
2020/12/30 07:01:12;;;;;;;1.77;1.10;;;20.30;39.20;;;;;;5065836;28;20036;-70
2020/12/30 07:03:38;;;;;;;6.28;1.40;;;20.30;39.20;;;;;;5094355;28;20068;-70
2020/12/30 07:06:23;;;;;;;1.65;0.85;;;20.30;39.20;;;;;;5095959;28;20052;-70
2020/12/30 07:08:49;;;;;;;2.05;0.95;;;20.30;39.20;;;;;;5058086;28;20071;-69
2020/12/30 07:11:36;;;;;;;1.20;1.08;;;20.30;39.20;;;;;;5075897;28;20036;-69
2020/12/30 07:14:04;;;;;;;1.77;1.10;;;20.40;39.20;;;;;;5076152;28;20029;-69
2020/12/30 07:16:33;;;;;;;7.90;1.25;;;20.40;39.10;;;;;;5102089;28;20020;-69
2020/12/30 07:18:59;;;;;;;3.50;1.25;;;20.30;39.00;;;;;;5110332;28;20578;-69
2020/12/30 07:21:24;;;;;;;1.48;1.05;;;20.30;39.10;;;;;;5095190;28;20107;-69
2020/12/30 07:23:50;;;;;;;2.97;1.25;;;20.40;39.10;;;;;;5111126;28;20024;-69
2020/12/30 07:26:16;;;;;;;2.33;1.20;;;20.40;39.10;;;;;;5111963;28;20395;-69
2020/12/30 07:28:43;;;;;;;2.42;1.00;;;20.30;39.00;;;;;;5096231;28;20020;-73
2020/12/30 07:31:09;;;;;;;1.70;1.30;;;20.40;39.10;;;;;;5096315;28;20536;-74
2020/12/30 07:33:36;;;;;;;2.08;1.23;;;20.30;39.00;;;;;;5095133;28;20020;-73
2020/12/30 07:36:06;;;;;;;2.70;1.52;;;20.30;38.90;;;;;;5111009;28;20074;-76
2020/12/30 07:38:35;;;;;;;1.65;1.45;;;20.30;39.00;;;;;;5095776;28;20024;-76
2020/12/30 07:41:05;;;;;;;2.08;1.15;;;20.30;39.80;;;;;;5094820;28;20042;-76
2020/12/30 07:43:49;;;;;;;1.67;1.17;;;20.30;39.10;;;;;;5077044;28;20028;-76
2020/12/30 07:46:21;;;;;;;4.35;1.38;;;20.30;39.10;;;;;;5095480;28;20012;-76
2020/12/30 07:48:47;;;;;;;2.80;1.38;;;20.30;39.00;;;;;;5111162;28;20036;-75
2020/12/30 07:51:13;;;;;;;3.70;2.10;;;20.30;39.20;;;;;;5095849;28;20023;-76
2020/12/30 07:53:39;;;;;;;3.15;1.50;;;20.30;39.20;;;;;;5110839;28;20044;-75
2020/12/30 07:56:05;;;;;;;1.58;0.90;;;20.30;39.10;;;;;;5093321;28;20107;-75
2020/12/30 07:58:30;;;;;;;2.85;1.58;;;20.30;39.00;;;;;;5093294;28;20127;-75
2020/12/30 08:01:17;;;;;;;2.20;1.10;;;20.30;39.10;;;;;;5094009;28;20032;-75
2020/12/30 08:03:42;;;;;;;;;;;20.30;39.20;;;;;;5078947;28;20512;-75
2020/12/30 08:06:11;;;;;;;2.05;1.55;;;20.30;39.00;;;;;;5094566;28;19958;-74
2020/12/30 08:08:47;;;;;;;4.38;1.30;;;20.30;39.00;;;;;;5094430;28;20039;-70
2020/12/30 08:11:18;;;;;;;2.42;1.13;;;20.30;39.20;;;;;;5083332;28;20055;-70
2020/12/30 08:13:44;;;;;;;1.10;0.93;;;20.30;39.20;;;;;;5110970;28;20073;-70
2020/12/30 08:16:10;;;;;;;4.05;1.23;;;20.30;39.20;;;;;;5094064;28;20094;-70
2020/12/30 08:18:47;;;;;;;1.80;1.30;;;20.30;39.20;;;;;;5093999;28;20066;-70
2020/12/30 08:21:12;;;;;;;1.90;1.20;;;20.30;39.20;;;;;;5092693;28;20016;-70
2020/12/30 08:23:38;;;;;;;4.05;1.90;;;20.30;39.20;;;;;;5095881;28;20514;-70
2020/12/30 08:26:03;;;;;;;2.50;1.40;;;20.30;39.30;;;;;;5096919;28;20452;-70
2020/12/30 08:28:29;;;;;;;2.38;1.40;;;20.30;39.20;;;;;;5109637;28;20501;-70
2020/12/30 08:30:58;;;;;;;3.15;1.02;;;20.30;39.10;;;;;;5092264;28;20043;-70
2020/12/30 08:33:23;;;;;;;1.13;0.60;;;20.30;39.20;;;;;;5092772;28;20040;-71
2020/12/30 08:35:54;;;;;;;1.17;0.93;;;20.30;39.30;;;;;;5092988;28;20020;-70
2020/12/30 08:38:20;;;;;;;3.53;1.35;;;20.30;39.20;;;;;;5097259;28;20528;-70
2020/12/30 08:40:51;;;;;;;1.60;1.20;;;20.30;39.20;;;;;;5075941;28;20036;-70
2020/12/30 08:43:56;;;;;;;3.33;1.58;;;20.30;39.10;;;;;;5092644;28;20036;-70
2020/12/30 08:46:25;;;;;;;2.75;1.63;;;20.30;39.00;;;;;;5073891;28;20186;-70
2020/12/30 08:48:51;;;;;;;1.88;1.20;;;20.30;39.10;;;;;;5092234;28;20048;-70
2020/12/30 08:51:30;;;;;;;1.63;1.27;;;20.30;39.10;;;;;;5108648;27;20716;-69
2020/12/30 08:53:55;;;;;;;3.10;0.93;;;20.30;39.00;;;;;;5093888;28;20363;-70
2020/12/30 08:56:21;;;;;;;2.28;1.45;;;20.30;39.10;;;;;;5099028;28;20008;-74
2020/12/30 08:58:59;;;;;;;3.05;1.23;;;20.30;39.20;;;;;;5093589;28;20036;-74
2020/12/30 09:01:25;;;;;;;2.17;1.38;;;20.30;39.30;;;;;;5094497;28;20020;-73
2020/12/30 09:07:26;;;;;;;3.25;1.05;;;20.30;39.10;;;;;;5103168;28;20024;-70
2020/12/30 09:10:21;;;;;;;1.80;1.02;;;20.30;39.20;;;;;;5092682;28;20128;-69
2020/12/30 09:12:47;;;;;;;2.20;1.17;;;20.30;39.30;;;;;;5031786;28;20049;-74
2020/12/30 09:15:14;;;;;;;4.50;1.33;;;20.30;39.20;;;;;;5031737;28;20056;-70
2020/12/30 09:17:42;;;;;;;3.42;1.33;;;20.30;39.20;;;;;;5031907;28;20120;-71
2020/12/30 09:20:09;;;;;;;4.07;1.40;;;20.40;39.20;;;;;;5030269;28;20074;-70
2020/12/30 09:22:35;;;;;;;1.20;0.93;;;20.40;39.20;;;;;;5013040;28;20112;-70
2020/12/30 09:25:00;;;;;;;2.20;1.15;;;20.40;39.20;;;;;;5035453;28;20097;-69
2020/12/30 09:27:26;;;;;;;5.38;0.90;;;20.50;39.30;;;;;;5024087;28;20505;-69
2020/12/30 09:30:13;;;;;;;1.58;1.20;;;20.40;39.20;;;;;;5030438;28;20631;-69
2020/12/30 09:32:39;;;;;;;2.15;1.33;;;20.50;39.40;;;;;;5014846;28;20046;-66
2020/12/30 09:35:06;;;;;;;2.63;1.38;;;20.40;39.30;;;;;;5014324;28;20029;-68
2020/12/30 09:37:32;;;;;;;3.47;1.67;;;20.40;39.30;;;;;;5031401;28;20079;-68
2020/12/30 09:40:03;;;;;;;1.27;0.80;;;20.40;39.30;;;;;;5031153;28;20029;-69
2020/12/30 09:42:29;;;;;;;2.05;1.15;;;20.40;39.40;;;;;;5027586;28;20080;-73
2020/12/30 09:44:54;;;;;;;1.77;0.93;;;20.40;39.50;;;;;;5025213;28;20033;-74
2020/12/30 09:47:41;;;;;;;2.40;1.25;;;20.40;39.60;;;;;;5016821;28;20041;-75
2020/12/30 09:50:09;;;;;;;1.30;1.10;;;20.40;39.70;;;;;;5085080;28;20071;-74
2020/12/30 09:52:37;;;;;;;4.63;1.30;;;20.40;39.60;;;;;;5093035;28;20081;-74
2020/12/30 09:55:04;;;;;;;2.22;1.20;;;20.40;39.70;;;;;;5112611;27;20070;-74
2020/12/30 09:57:29;;;;;;;1.85;1.00;;;20.30;39.60;;;;;;5066068;28;20453;-74
2020/12/30 09:59:55;;;;;;;1.33;0.77;;;20.30;39.80;;;;;;5106950;27;20069;-75
2020/12/30 10:02:21;;;;;;;5.88;1.45;;;20.30;39.80;;;;;;5092404;28;20431;-75
2020/12/30 10:04:46;;;;;;;2.78;1.25;;;20.30;39.70;;;;;;5092937;28;20141;-75
2020/12/30 10:07:12;;;;;;;3.08;1.25;;;20.30;39.60;;;;;;5099092;28;20069;-75
2020/12/30 10:09:38;;;;;;;3.50;1.52;;;20.20;39.60;;;;;;5092764;28;20036;-75
2020/12/30 10:12:04;;;;;;;1.98;1.02;;;20.20;39.60;;;;;;5092976;28;20106;-74
2020/12/30 10:14:29;;;;;;;2.22;1.70;;;20.20;39.60;;;;;;5096982;28;20036;-74
2020/12/30 10:16:55;;;;;;;2.80;1.48;;;20.20;39.40;;;;;;5098068;28;20031;-74
2020/12/30 10:19:20;;;;;;;1.58;0.85;;;20.10;39.30;;;;;;5090360;28;20040;-73
2020/12/30 10:21:46;;;;;;;7.90;1.30;;;20.10;39.40;;;;;;5080373;28;20028;-74
2020/12/30 10:24:11;;;;;;;3.95;1.33;;;20.10;39.40;;;;;;5089977;28;20032;-74
2020/12/30 10:26:37;;;;;;;2.03;0.85;;;20.10;39.30;;;;;;5090874;28;20024;-74
2020/12/30 10:29:02;;;;;;;3.97;1.67;;;20.10;39.30;;;;;;5089019;28;20454;-74
2020/12/30 10:31:28;;;;;;;1.27;0.90;;;20.10;39.30;;;;;;5092172;28;20027;-74
2020/12/30 10:33:54;;;;;;;5.75;1.15;;;20.10;39.40;;;;;;5056040;28;20151;-73
2020/12/30 10:36:21;;;;;;;0.82;0.82;;;20.10;39.50;;;;;;5064380;28;20111;-74
2020/12/30 10:38:47;;;;;;;3.78;0.90;;;20.10;39.40;;;;;;5079603;28;20521;-74
2020/12/30 10:41:29;;;;;;;1.08;1.00;;;20.20;39.40;;;;;;5066688;28;20077;-74
2020/12/30 10:43:54;;;;;;;1.50;0.98;;;20.20;39.50;;;;;;5041372;28;20044;-74
2020/12/30 10:46:20;;;;;;;2.22;1.08;;;20.20;39.50;;;;;;5086953;28;20027;-74
2020/12/30 10:49:01;;;;;;;2.90;1.38;;;20.10;39.40;;;;;;5082770;28;20074;-74
2020/12/30 10:51:46;;;;;;;2.92;0.95;;;20.20;39.30;;;;;;5086650;28;20036;-74
2020/12/30 10:54:12;;;;;;;1.02;0.60;;;20.20;39.30;;;;;;5091077;28;20491;-74
2020/12/30 10:56:37;;;;;;;1.88;0.82;;;20.20;39.40;;;;;;5079262;28;20035;-74
2020/12/30 10:59:05;;;;;;;1.40;0.60;;;20.20;39.40;;;;;;5080747;28;20567;-75
2020/12/30 11:01:31;;;;;;;2.10;0.85;;;20.20;39.40;;;;;;5068971;28;20044;-74
2020/12/30 11:03:56;;;;;;;0.63;0.50;;;20.20;39.30;;;;;;5083361;28;20027;-74
2020/12/30 11:06:22;;;;;;;0.90;0.68;;;20.20;39.30;;;;;;5096222;28;20028;-74
2020/12/30 11:08:48;;;;;;;0.75;0.75;;;20.20;39.30;;;;;;5092615;28;20026;-75
2020/12/30 11:11:13;;;;;;;1.33;0.98;;;20.20;39.40;;;;;;5094069;28;20071;-75
2020/12/30 11:13:48;;;;;;;2.50;1.13;;;20.10;39.20;;;;;;5064414;28;20040;-74
2020/12/30 11:16:14;;;;;;;2.50;1.30;;;20.20;39.30;;;;;;5084485;28;20039;-74
2020/12/30 11:18:39;;;;;;;2.88;1.40;;;20.20;40.00;;;;;;5089838;28;20055;-74
2020/12/30 11:21:11;;;;;;;2.33;0.93;;;20.10;39.30;;;;;;5083917;28;20028;-74
2020/12/30 11:23:36;;;;;;;3.35;1.73;;;20.10;39.20;;;;;;5085630;28;20724;-74
2020/12/30 11:26:02;;;;;;;3.42;1.10;;;20.10;39.30;;;;;;5063036;28;20044;-74
2020/12/30 11:28:28;;;;;;;0.93;0.75;;;20.10;39.20;;;;;;5084518;28;20448;-74
2020/12/30 11:30:54;;;;;;;2.17;1.13;;;20.10;39.20;;;;;;5089211;28;20024;-70
2020/12/30 11:33:19;;;;;;;1.15;0.93;;;20.10;39.20;;;;;;5094984;28;20133;-70
2020/12/30 11:35:45;;;;;;;1.58;0.88;;;20.10;39.30;;;;;;5094955;28;20471;-70
2020/12/30 11:38:10;;;;;;;2.83;0.95;;;20.10;39.30;;;;;;5093186;28;20027;-70
2020/12/30 11:40:38;;;;;;;1.27;0.73;;;20.20;39.30;;;;;;5092416;28;20028;-70
2020/12/30 11:43:04;;;;;;;0.85;0.60;;;20.20;39.30;;;;;;5094125;28;20070;-70
2020/12/30 11:45:29;;;;;;;1.38;0.70;;;20.20;39.90;;;;;;5058615;28;20020;-70
2020/12/30 11:47:55;;;;;;;0.82;0.63;;;20.30;39.30;;;;;;5094755;28;20517;-70
2020/12/30 11:50:21;;;;;;;5.03;1.15;;;20.30;39.20;;;;;;5093964;28;20499;-70
2020/12/30 11:52:46;;;;;;;1.23;0.70;;;20.30;39.20;;;;;;5092565;28;20548;-70
2020/12/30 11:55:12;;;;;;;1.70;1.08;;;20.40;39.20;;;;;;5095148;28;20515;-70
2020/12/30 11:57:37;;;;;;;1.42;0.80;;;20.40;39.10;;;;;;5093521;28;20028;-70
2020/12/30 12:00:07;;;;;;;3.22;0.75;;;20.40;39.00;;;;;;5092912;28;21011;-70
2020/12/30 12:02:33;;;;;;;1.42;0.98;;;20.40;39.10;;;;;;5059087;28;20411;-70
2020/12/30 12:05:00;;;;;;;0.63;0.47;;;20.40;39.20;;;;;;5094780;28;20083;-71
2020/12/30 12:07:26;;;;;;;0.88;0.68;;;20.40;39.20;;;;;;5092200;28;20484;-70
2020/12/30 12:09:51;;;;;;;2.63;1.15;;;20.40;39.20;;;;;;5091154;28;20122;-70
2020/12/30 12:12:17;;;;;;;2.10;0.77;;;20.40;39.10;;;;;;5092566;28;20399;-70
2020/12/30 12:14:42;;;;;;;0.90;0.85;;;20.40;39.20;;;;;;5093955;28;20431;-70
2020/12/30 12:17:08;;;;;;;0.85;0.80;;;20.40;39.20;;;;;;5094736;28;20047;-70
2020/12/30 12:19:33;;;;;;;0.60;0.55;;;20.40;39.30;;;;;;5093898;28;20056;-70
2020/12/30 12:21:59;;;;;;;2.90;0.90;;;20.40;39.20;;;;;;5092900;28;20020;-70
2020/12/30 12:24:40;;;;;;;1.60;0.77;;;20.40;39.20;;;;;;5081994;28;20036;-70
2020/12/30 12:27:05;;;;;;;1.65;1.17;;;20.40;39.30;;;;;;5087919;28;20065;-70
2020/12/30 12:29:34;;;;;;;1.83;1.20;;;20.40;39.30;;;;;;5093117;28;20036;-70
2020/12/30 12:32:03;;;;;;;2.30;1.25;;;20.30;39.20;;;;;;5100187;28;20024;-70
2020/12/30 12:34:28;;;;;;;1.60;1.02;;;20.30;39.20;;;;;;5097894;28;20077;-70
2020/12/30 12:36:54;;;;;;;4.60;1.55;;;20.30;39.20;;;;;;5102181;28;20570;-71
2020/12/30 12:39:19;;;;;;;3.08;0.90;;;20.20;39.10;;;;;;5064668;28;20024;-70
2020/12/30 12:41:45;;;;;;;2.50;0.93;;;20.20;39.20;;;;;;5085649;28;20024;-71
2020/12/30 12:44:10;;;;;;;1.38;0.75;;;20.20;39.30;;;;;;5090855;28;20048;-70
2020/12/30 12:46:36;;;;;;;3.05;0.85;;;20.20;40.00;;;;;;5093786;28;20030;-70
2020/12/30 12:49:01;;;;;;;1.90;0.88;;;20.20;39.30;;;;;;5093693;28;20103;-71
2020/12/30 12:51:27;;;;;;;1.60;1.05;;;20.20;39.30;;;;;;5073928;28;20068;-76
2020/12/30 12:54:04;;;;;;;1.38;1.02;;;20.20;39.30;;;;;;5108129;27;20020;-68